Ilminster, United Kingdom
Current Conditions -  °F | °C
As of 4:50 AM on Thursday 27 Nov 2014 (Local Time) from EGDY Reporting Station
Haze Haze  
Wind Chill:   Ceiling: 2000
Heat Index:   Visibility: 0.75mi
Dew Point:   Wind: 2mph
Humidity: 100%   Direction: 70°ENE
Pressure: 29.65"   Gusts: NA
Location:  50.93°N, 2.91°W
Report Text: EGDY 270450Z 07002KT 1200 BR FEW003 SCT008 OVC020 07/07 Q1004 AMB
Loading
Personal Weather Stations






























Interactive Weather Map New forecast layout! Learn more

10-Day Weather Forecast

Advertisements
Track Severe Weather on mobile